Time;durP1;ratioP1;P1;durP2;ratioP2;P2;SDS_P1;SDS_P2;PMS_P1;PMS_P2;Temp;Humidity;BMP_temperature;BMP_pressure;BME280_temperature;BME280_humidity;BME280_pressure;Samples;Min_cycle;Max_cycle;Signal;HPM_P1;HPM_P2
2022/06/24 00:01:36;;;;;;;11.10;3.70;;;16.10;99.90;;;;;;5073457;28;20052;-90
2022/06/24 00:04:25;;;;;;;16.15;4.47;;;16.10;99.90;;;;;;5069759;28;20056;-90
2022/06/24 00:07:16;;;;;;;7.22;3.95;;;16.20;99.90;;;;;;5083274;28;20033;-90
2022/06/24 00:10:15;;;;;;;11.82;4.60;;;16.10;99.90;;;;;;5074068;28;20041;-87
2022/06/24 00:13:04;;;;;;;14.90;4.57;;;16.10;99.90;;;;;;5068847;28;20091;-90
2022/06/24 00:16:02;;;;;;;9.65;4.22;;;16.10;99.90;;;;;;5047466;28;20036;-90
2022/06/24 00:19:10;;;;;;;13.13;4.43;;;16.10;99.90;;;;;;5073601;28;20326;-92
2022/06/24 00:22:11;;;;;;;9.32;4.30;;;16.10;99.90;;;;;;5068060;28;20045;-92
2022/06/24 00:25:11;;;;;;;8.85;4.38;;;16.10;99.90;;;;;;5070989;28;20068;-91
2022/06/24 00:28:03;;;;;;;8.43;4.65;;;16.10;99.90;;;;;;5068144;28;20041;-92
2022/06/24 00:30:57;;;;;;;11.90;5.25;;;16.10;99.90;;;;;;5080291;28;20071;-91
2022/06/24 00:33:46;;;;;;;12.45;5.43;;;16.10;99.90;;;;;;5076826;28;20363;-92
2022/06/24 00:36:36;;;;;;;10.90;4.80;;;16.20;99.90;;;;;;5074748;28;20125;-89
2022/06/24 00:39:33;;;;;;;13.10;5.07;;;16.20;99.90;;;;;;5074349;28;20487;-91
2022/06/24 00:42:24;;;;;;;8.93;5.45;;;16.10;99.90;;;;;;5072725;28;20362;-91
2022/06/24 00:45:15;;;;;;;11.77;5.85;;;16.20;99.90;;;;;;5068214;28;20151;-90
2022/06/24 00:48:11;;;;;;;11.98;5.88;;;16.20;99.90;;;;;;5070639;28;20076;-91
2022/06/24 00:50:58;;;;;;;15.98;6.20;;;16.20;99.90;;;;;;5068199;28;20049;-89
2022/06/24 00:53:54;;;;;;;12.25;6.22;;;16.20;99.90;;;;;;5059099;28;20055;-93
2022/06/24 00:56:42;;;;;;;16.60;7.55;;;16.10;99.90;;;;;;5064271;28;20060;-88
2022/06/24 00:59:38;;;;;;;12.50;6.90;;;16.10;99.90;;;;;;5067298;28;20369;-90
2022/06/24 01:02:28;;;;;;;18.13;7.53;;;16.10;99.90;;;;;;5060551;28;20457;-89
2022/06/24 01:05:18;;;;;;;16.23;8.00;;;16.10;99.90;;;;;;5067635;28;20135;-89
2022/06/24 01:08:10;;;;;;;19.63;8.02;;;16.00;99.90;;;;;;5075225;28;20457;-89
2022/06/24 01:10:57;;;;;;;22.33;7.80;;;16.00;99.90;;;;;;5056698;28;20041;-91
2022/06/24 01:13:45;;;;;;;19.67;7.72;;;16.00;99.90;;;;;;5078051;28;20118;-89
2022/06/24 01:16:34;;;;;;;17.00;8.13;;;15.90;99.90;;;;;;5074949;28;20044;-89
2022/06/24 01:19:22;;;;;;;19.15;8.38;;;15.90;99.90;;;;;;5070573;28;20122;-88
2022/06/24 01:22:25;;;;;;;22.65;8.10;;;15.90;99.90;;;;;;5062959;28;20596;-90
2022/06/24 01:25:15;;;;;;;18.95;8.55;;;15.90;99.90;;;;;;5072117;28;20036;-89
2022/06/24 01:28:05;;;;;;;16.00;8.40;;;15.90;99.90;;;;;;5060672;28;20326;-89
2022/06/24 01:30:52;;;;;;;20.10;8.38;;;15.80;99.90;;;;;;5063969;28;20123;-90
2022/06/24 01:33:39;;;;;;;14.63;8.18;;;15.80;99.90;;;;;;5077190;28;20389;-88
2022/06/24 01:36:26;;;;;;;14.93;7.93;;;15.80;99.90;;;;;;5074788;28;20393;-89
2022/06/24 01:39:14;;;;;;;14.13;8.05;;;15.80;99.90;;;;;;5075545;28;20049;-90
2022/06/24 01:42:04;;;;;;;15.95;7.63;;;15.70;99.90;;;;;;5070242;28;20045;-86
2022/06/24 01:44:51;;;;;;;15.65;7.97;;;15.70;99.90;;;;;;5076875;28;20083;-89
2022/06/24 01:47:40;;;;;;;14.75;7.38;;;15.70;99.90;;;;;;5068622;28;20067;-90
2022/06/24 01:50:30;;;;;;;19.23;7.90;;;15.70;99.90;;;;;;5080799;28;20044;-88
2022/06/24 01:53:18;;;;;;;17.25;8.07;;;15.70;99.90;;;;;;5069887;28;20174;-89
2022/06/24 01:56:05;;;;;;;22.38;8.38;;;15.70;99.90;;;;;;5075046;28;20169;-89
2022/06/24 01:58:52;;;;;;;17.83;8.60;;;15.70;99.90;;;;;;5062214;28;20434;-90
2022/06/24 02:01:45;;;;;;;26.58;9.50;;;15.70;99.90;;;;;;5070844;28;20098;-89
2022/06/24 02:04:35;;;;;;;20.25;9.15;;;15.70;99.90;;;;;;5064963;28;20079;-89
2022/06/24 02:07:22;;;;;;;15.45;7.97;;;15.80;99.90;;;;;;5075865;28;20112;-88
2022/06/24 02:13:29;;;;;;;19.92;7.80;;;15.60;99.90;;;;;;5076547;28;20037;-90
2022/06/24 02:16:20;;;;;;;18.10;7.80;;;15.50;99.90;;;;;;5071086;28;20123;-91
2022/06/24 02:19:08;;;;;;;24.10;7.75;;;15.50;99.90;;;;;;5071420;28;20132;-88
2022/06/24 02:21:55;;;;;;;10.45;7.18;;;15.50;99.90;;;;;;5065287;28;20076;-89
2022/06/24 02:24:46;;;;;;;15.05;6.97;;;15.50;99.90;;;;;;5056504;28;20106;-89
2022/06/24 02:27:33;;;;;;;18.95;8.25;;;15.40;99.90;;;;;;5074401;28;20064;-88
2022/06/24 02:30:21;;;;;;;17.95;8.95;;;15.40;99.90;;;;;;5055735;28;20051;-89
2022/06/24 02:33:09;;;;;;;21.08;8.93;;;15.40;99.90;;;;;;5075472;28;20118;-89
2022/06/24 02:35:57;;;;;;;20.02;8.85;;;15.40;99.90;;;;;;5057355;28;20079;-89
2022/06/24 02:38:45;;;;;;;14.98;8.30;;;15.40;99.90;;;;;;5076441;28;20072;-90
2022/06/24 02:41:32;;;;;;;19.00;8.07;;;15.40;99.90;;;;;;5065195;28;20075;-88
2022/06/24 02:44:22;;;;;;;21.58;8.57;;;15.40;99.90;;;;;;5060655;28;20053;-89
2022/06/24 02:47:11;;;;;;;13.60;7.47;;;15.40;99.90;;;;;;5062757;28;20044;-88
2022/06/24 02:49:58;;;;;;;15.75;8.10;;;15.40;99.90;;;;;;5071948;28;20170;-88
2022/06/24 02:52:46;;;;;;;18.00;7.00;;;15.40;99.90;;;;;;5068062;28;20389;-88
2022/06/24 02:55:39;;;;;;;17.45;7.68;;;15.40;99.90;;;;;;5074187;28;20163;-88
2022/06/24 02:58:27;;;;;;;14.70;7.85;;;15.40;99.90;;;;;;5055816;28;20056;-90
2022/06/24 03:01:16;;;;;;;18.10;7.88;;;15.40;99.90;;;;;;5077993;28;20075;-88
2022/06/24 03:04:03;;;;;;;17.00;7.43;;;15.40;99.90;;;;;;5095233;28;20044;-90
2022/06/24 03:06:53;;;;;;;15.85;7.43;;;15.30;99.90;;;;;;5070706;28;20061;-90
2022/06/24 03:09:40;;;;;;;15.38;7.43;;;15.40;99.90;;;;;;5083544;28;20436;-90
2022/06/24 03:12:27;;;;;;;16.00;7.57;;;15.30;99.90;;;;;;5063826;28;20076;-92
2022/06/24 03:15:15;;;;;;;17.55;8.27;;;15.30;99.90;;;;;;5087385;28;20040;-89
2022/06/24 03:18:03;;;;;;;18.98;7.10;;;15.30;99.90;;;;;;5083622;28;20064;-90
2022/06/24 03:20:50;;;;;;;16.17;7.53;;;15.30;99.90;;;;;;5084467;28;20106;-90
2022/06/24 03:23:40;;;;;;;14.45;6.85;;;15.40;99.90;;;;;;5065687;28;20441;-89
2022/06/24 03:26:29;;;;;;;14.50;7.57;;;15.40;99.90;;;;;;5074243;28;20070;-90
2022/06/24 03:29:17;;;;;;;15.63;6.85;;;15.30;99.90;;;;;;5083185;28;20090;-88
2022/06/24 03:32:06;;;;;;;10.77;6.13;;;15.30;99.90;;;;;;5075891;28;20044;-91
2022/06/24 03:34:54;;;;;;;16.42;7.95;;;15.30;99.90;;;;;;5062680;28;20090;-91
2022/06/24 03:37:44;;;;;;;16.65;6.95;;;15.20;99.90;;;;;;5076787;28;20104;-91
2022/06/24 03:40:34;;;;;;;17.98;6.90;;;15.20;99.90;;;;;;5068743;28;20076;-89
2022/06/24 03:43:21;;;;;;;12.40;6.25;;;15.20;99.90;;;;;;5076711;28;20054;-88
2022/06/24 03:46:32;;;;;;;15.98;6.78;;;15.20;99.90;;;;;;5061690;28;20054;-91
2022/06/24 03:49:19;;;;;;;16.67;6.65;;;15.20;99.90;;;;;;5059069;28;20060;-90
2022/06/24 03:52:08;;;;;;;17.38;7.43;;;15.20;99.90;;;;;;5070292;28;20202;-89
2022/06/24 03:54:56;;;;;;;21.10;8.10;;;15.20;99.90;;;;;;5065620;28;20225;-88
2022/06/24 03:57:43;;;;;;;13.55;6.78;;;15.20;99.90;;;;;;5071225;28;20048;-88
2022/06/24 04:00:31;;;;;;;13.00;7.22;;;15.20;99.90;;;;;;5058264;28;20048;-88
2022/06/24 04:04:07;;;;;;;17.08;7.75;;;15.20;99.90;;;;;;5070514;28;20106;-89
2022/06/24 04:06:54;;;;;;;11.23;6.88;;;15.20;99.90;;;;;;5056991;28;20048;-89
2022/06/24 04:09:42;;;;;;;21.42;7.32;;;15.20;99.90;;;;;;5072477;28;20091;-88
2022/06/24 04:12:31;;;;;;;25.50;9.50;;;15.20;99.90;;;;;;5067439;28;20051;-87
2022/06/24 04:27:28;;;;;;;21.10;7.18;;;15.40;99.90;;;;;;5069094;28;20033;-89
2022/06/24 04:46:55;;;;;;;12.38;6.13;;;15.70;99.90;;;;;;5009945;28;20041;-88
2022/06/24 04:58:17;;;;;;;12.95;4.97;;;15.90;99.90;;;;;;5075928;28;20075;-90
2022/06/24 05:01:29;;;;;;;11.07;4.70;;;16.00;99.90;;;;;;5061360;28;20196;-90
2022/06/24 05:12:35;;;;;;;12.30;4.32;;;16.30;99.90;;;;;;5075110;28;20122;-89
2022/06/24 05:27:16;;;;;;;11.70;3.65;;;16.60;99.90;;;;;;5075649;28;20370;-89
2022/06/24 05:43:21;;;;;;;13.13;3.92;;;17.00;99.90;;;;;;5077489;28;20056;-89
2022/06/24 06:02:44;;;;;;;14.13;3.67;;;17.70;99.90;;;;;;5076385;28;20057;-87
2022/06/24 06:05:32;;;;;;;9.68;2.75;;;17.90;99.90;;;;;;5072702;28;20469;-87
2022/06/24 06:08:29;;;;;;;11.38;3.22;;;17.90;99.90;;;;;;5062189;28;20044;-86
2022/06/24 06:11:20;;;;;;;10.07;3.42;;;17.90;99.90;;;;;;5066880;28;20040;-88
2022/06/24 06:14:18;;;;;;;10.13;3.25;;;18.00;99.90;;;;;;5064623;28;20067;-87
2022/06/24 06:17:06;;;;;;;11.52;2.95;;;18.00;99.90;;;;;;5065344;28;20131;-88
2022/06/24 06:19:55;;;;;;;14.13;3.47;;;18.20;99.90;;;;;;5071200;28;20053;-86
2022/06/24 06:22:42;;;;;;;9.55;3.30;;;18.20;99.90;;;;;;5068773;28;20063;-90
2022/06/24 06:25:33;;;;;;;9.90;3.40;;;18.40;99.90;;;;;;5059595;28;20366;-90
2022/06/24 06:28:20;;;;;;;6.95;2.95;;;18.50;99.90;;;;;;5076829;28;20048;-89
2022/06/24 08:39:10;;;;;;;11.25;1.98;;;23.00;99.90;;;;;;5074813;28;20036;-89
2022/06/24 08:43:20;;;;;;;5.30;1.65;;;22.40;99.90;;;;;;5006849;28;20134;-90
2022/06/24 08:46:11;;;;;;;8.35;2.05;;;21.90;99.90;;;;;;5006498;28;20054;-92
2022/06/24 08:49:18;;;;;;;;;;;;;;;;;;;;;
2022/06/24 08:52:10;;;;;;;6.32;2.08;;;22.20;99.90;;;;;;5008656;28;20042;-93
2022/06/24 08:55:12;;;;;;;;;;;;;;;;;;;;;
2022/06/24 08:58:19;;;;;;;7.78;2.17;;;23.10;99.90;;;;;;5008777;28;19991;-89
2022/06/24 09:12:30;;;;;;;;;;;23.50;99.90;;;;;;4906826;28;20042;-92
2022/06/24 09:15:32;;;;;;;3.78;1.60;;;23.70;99.90;;;;;;4998241;28;19940;-91
2022/06/24 09:18:38;;;;;;;6.28;1.88;;;24.20;99.90;;;;;;4998001;28;20121;-91
2022/06/24 09:22:11;;;;;;;6.78;1.77;;;23.20;99.90;;;;;;5009303;28;20050;-91
2022/06/24 09:25:15;;;;;;;7.22;1.95;;;23.70;99.90;;;;;;5027969;28;20514;-94
2022/06/24 09:41:49;;;;;;;7.40;1.80;;;25.70;94.90;;;;;;4905203;29;20137;-94
2022/06/24 09:45:00;;;;;;;;;;;;;;;;;;;;;
2022/06/24 09:48:02;;;;;;;2.05;1.30;;;25.70;99.90;;;;;;4952959;28;20141;-93
2022/06/24 09:51:51;;;;;;;5.72;1.10;;;25.80;95.30;;;;;;4964760;28;20118;-94
2022/06/24 09:54:52;;;;;;;3.87;1.30;;;24.60;94.20;;;;;;4953058;28;20039;-91
2022/06/24 09:58:03;;;;;;;4.47;1.48;;;23.80;93.70;;;;;;4922881;29;20777;-92
2022/06/24 10:00:52;;;;;;;3.65;1.20;;;24.30;95.30;;;;;;4936247;29;20066;-85
2022/06/24 10:03:43;;;;;;;3.92;1.33;;;25.40;94.20;;;;;;4977698;28;20060;-92
2022/06/24 10:06:37;;;;;;;3.23;1.30;;;26.30;91.20;;;;;;5001297;28;20099;-91
2022/06/24 10:09:35;;;;;;;3.50;1.48;;;26.50;90.40;;;;;;4995493;28;20086;-90
2022/06/24 10:13:18;;;;;;;1.95;1.17;;;26.90;87.40;;;;;;5042247;28;20082;-90
2022/06/24 10:25:18;;;;;;;2.90;1.05;;;29.20;76.00;;;;;;5002518;28;20027;-93
2022/06/24 10:36:35;;;;;;;;;;;;;;;;;;;;;
2022/06/24 10:40:16;;;;;;;5.03;1.48;;;25.90;80.60;;;;;;4902209;29;20060;-93
2022/06/24 10:43:54;;;;;;;2.78;1.10;;;25.90;82.70;;;;;;4879416;29;20044;-92
2022/06/24 10:47:46;;;;;;;;;;;;;;;;;;;;;
2022/06/24 11:01:07;;;;;;;2.50;0.95;;;26.30;78.60;;;;;;5079129;28;20055;-91
2022/06/24 11:08:58;;;;;;;4.50;0.95;;;27.20;75.50;;;;;;5003862;28;20093;-92
2022/06/24 11:11:50;;;;;;;5.03;1.05;;;27.70;72.20;;;;;;5029431;28;20128;-90
2022/06/24 11:14:51;;;;;;;3.45;1.00;;;27.20;70.00;;;;;;5072842;28;20040;-92
2022/06/24 11:17:48;;;;;;;3.42;0.90;;;27.30;72.40;;;;;;5058336;28;20055;-91
2022/06/24 11:21:08;;;;;;;1.95;0.88;;;28.20;68.30;;;;;;5077858;28;20051;-88
2022/06/24 11:24:00;;;;;;;2.78;1.00;;;28.50;65.40;;;;;;5055240;28;20032;-88
2022/06/24 11:27:09;;;;;;;1.88;0.88;;;28.40;67.00;;;;;;5069960;28;20090;-90
2022/06/24 11:29:59;;;;;;;4.10;1.00;;;28.00;66.70;;;;;;5061791;28;20036;-91
2022/06/24 11:32:55;;;;;;;2.25;0.70;;;28.40;67.20;;;;;;5072530;28;20063;-90
2022/06/24 11:36:02;;;;;;;2.63;0.75;;;29.60;62.90;;;;;;5062914;28;20118;-88
2022/06/24 11:39:02;;;;;;;2.92;0.65;;;29.80;66.80;;;;;;5060062;28;20049;-90
2022/06/24 11:42:11;;;;;;;1.33;0.77;;;29.40;62.60;;;;;;5075016;28;20626;-92
2022/06/24 11:44:58;;;;;;;4.07;1.77;;;29.40;63.00;;;;;;5089068;28;20052;-92
2022/06/24 11:47:47;;;;;;;2.50;1.20;;;28.60;63.30;;;;;;5087954;28;20061;-91
2022/06/24 11:50:45;;;;;;;3.78;0.95;;;27.80;65.00;;;;;;5079904;28;20055;-91
2022/06/24 11:54:03;;;;;;;3.17;0.90;;;28.70;73.00;;;;;;5076881;28;20032;-93
2022/06/24 11:57:48;;;;;;;;;;;;;;;;;;;;;
2022/06/24 12:05:09;;;;;;;1.58;0.90;;;30.80;59.50;;;;;;5065191;28;20095;-92
2022/06/24 12:08:23;;;;;;;2.15;0.80;;;30.50;63.70;;;;;;5074151;28;20033;-90
2022/06/24 12:11:40;;;;;;;2.78;0.90;;;29.60;66.50;;;;;;5072524;28;20104;-93
2022/06/24 12:14:28;;;;;;;5.05;1.40;;;28.80;68.60;;;;;;5080469;28;20079;-90
2022/06/24 12:17:16;;;;;;;8.10;1.67;;;27.90;73.80;;;;;;5067111;28;20040;-91
2022/06/24 12:20:05;;;;;;;4.57;1.50;;;27.50;71.30;;;;;;5076622;28;20422;-91
2022/06/24 12:23:38;;;;;;;5.47;1.38;;;26.70;79.40;;;;;;5059606;28;20141;-90
2022/06/24 12:27:06;;;;;;;8.43;1.77;;;26.10;81.60;;;;;;5038781;28;20118;-92
2022/06/24 12:29:57;;;;;;;3.72;2.20;;;25.90;85.90;;;;;;5058936;28;20185;-89
2022/06/24 12:33:00;;;;;;;3.40;1.63;;;25.50;84.30;;;;;;5081868;28;20040;-90
2022/06/24 12:35:50;;;;;;;4.65;1.50;;;25.10;87.80;;;;;;5058067;28;20139;-91
2022/06/24 12:38:45;;;;;;;9.25;1.60;;;25.00;88.80;;;;;;5073637;28;20055;-89
2022/06/24 12:41:51;;;;;;;5.57;1.70;;;24.60;91.10;;;;;;5077043;28;20158;-92
2022/06/24 12:44:55;;;;;;;6.60;1.50;;;24.10;92.60;;;;;;5059039;28;20050;-92
2022/06/24 12:51:04;;;;;;;4.25;1.50;;;23.80;93.40;;;;;;5082841;28;20044;-92
2022/06/24 12:54:00;;;;;;;4.75;1.58;;;23.60;93.90;;;;;;5083359;28;20054;-89
2022/06/24 12:56:58;;;;;;;2.78;1.60;;;23.20;94.70;;;;;;5074639;28;20044;-91
2022/06/24 12:59:45;;;;;;;1.75;1.17;;;23.00;95.70;;;;;;5086704;28;20049;-93
2022/06/24 13:02:59;;;;;;;5.90;1.67;;;22.80;97.00;;;;;;5068346;28;20108;-92
2022/06/24 13:05:52;;;;;;;3.03;1.50;;;22.70;98.40;;;;;;5062240;28;20056;-91
2022/06/24 13:08:41;;;;;;;5.35;1.55;;;22.50;98.80;;;;;;5063697;28;20435;-89
2022/06/24 13:11:36;;;;;;;6.85;1.40;;;22.50;99.80;;;;;;5055467;28;20053;-87
2022/06/24 13:14:24;;;;;;;6.03;1.50;;;22.30;99.90;;;;;;5065390;28;20049;-88
2022/06/24 13:17:12;;;;;;;4.00;1.70;;;22.30;99.90;;;;;;5059320;28;20133;-89
2022/06/24 13:20:03;;;;;;;2.28;1.30;;;22.20;99.90;;;;;;5075575;28;20046;-88
2022/06/24 13:22:56;;;;;;;6.05;1.77;;;22.20;99.90;;;;;;5079743;28;20449;-87
2022/06/24 13:25:44;;;;;;;6.45;1.50;;;22.00;99.90;;;;;;5064982;28;20051;-87
2022/06/24 13:28:33;;;;;;;3.50;1.73;;;21.90;99.90;;;;;;5067981;28;20044;-88
2022/06/24 13:31:22;;;;;;;3.03;2.10;;;21.70;99.90;;;;;;5068848;28;20036;-88
2022/06/24 13:34:10;;;;;;;7.53;2.55;;;21.50;99.90;;;;;;5059565;28;20066;-89
2022/06/24 13:37:00;;;;;;;5.75;2.42;;;21.10;99.90;;;;;;5066242;28;20036;-84
2022/06/24 13:39:50;;;;;;;8.15;2.67;;;20.60;99.90;;;;;;5058157;28;20071;-87
2022/06/24 13:42:49;;;;;;;8.75;3.33;;;20.20;99.90;;;;;;5064211;28;20177;-90
2022/06/24 13:45:47;;;;;;;;;;;;;;;;;;;;;
2022/06/24 13:49:39;;;;;;;;;;;;;;;;;;;;;
2022/06/24 13:56:48;;;;;;;9.18;5.20;;;19.10;99.90;;;;;;5002887;28;20034;-91
2022/06/24 13:59:56;;;;;;;11.45;6.57;;;19.00;99.90;;;;;;4980728;28;20057;-91
2022/06/24 14:02:59;;;;;;;10.63;6.00;;;19.00;99.90;;;;;;5026335;28;20048;-91
2022/06/24 14:05:53;;;;;;;14.82;6.38;;;18.80;99.90;;;;;;5063802;28;20051;-87
2022/06/24 14:08:44;;;;;;;14.52;4.18;;;18.70;99.90;;;;;;5061909;28;20040;-88
2022/06/24 14:11:34;;;;;;;8.07;4.03;;;18.40;99.90;;;;;;5071608;28;20040;-88
2022/06/24 14:14:21;;;;;;;7.75;2.90;;;18.10;99.90;;;;;;5076440;28;20051;-88
2022/06/24 14:17:10;;;;;;;13.15;3.95;;;17.60;99.90;;;;;;5071427;28;20423;-88
2022/06/24 14:20:21;;;;;;;7.45;4.10;;;17.30;99.90;;;;;;5062828;28;20102;-89
2022/06/24 14:26:20;;;;;;;7.75;4.50;;;16.90;99.90;;;;;;5077585;28;20048;-88
2022/06/24 14:29:08;;;;;;;7.07;4.47;;;16.70;99.90;;;;;;5064323;28;20032;-88
2022/06/24 14:31:58;;;;;;;7.38;4.78;;;16.70;99.90;;;;;;5053366;28;20040;-88
2022/06/24 14:34:46;;;;;;;11.63;4.30;;;16.60;99.90;;;;;;5056677;28;20048;-88
2022/06/24 14:40:41;;;;;;;9.63;5.05;;;16.30;99.90;;;;;;5072387;28;20550;-89
2022/06/24 14:43:40;;;;;;;7.40;4.60;;;16.30;99.90;;;;;;5070741;28;20370;-87
2022/06/24 14:46:27;;;;;;;9.82;4.32;;;16.20;99.90;;;;;;5055746;28;20457;-87
2022/06/24 14:49:14;;;;;;;8.93;4.30;;;16.30;99.90;;;;;;5063099;28;20048;-86
2022/06/24 14:52:19;;;;;;;9.00;4.70;;;16.30;99.90;;;;;;5059341;28;20457;-86
2022/06/24 14:55:06;;;;;;;9.32;5.18;;;16.40;99.90;;;;;;5052788;28;20051;-86
2022/06/24 14:57:57;;;;;;;9.70;5.38;;;16.50;99.90;;;;;;5074096;28;20492;-87
2022/06/24 15:00:45;;;;;;;10.45;4.90;;;16.60;99.90;;;;;;5067521;28;20056;-87
2022/06/24 15:03:34;;;;;;;9.00;5.53;;;16.60;99.90;;;;;;5059920;28;20045;-86
2022/06/24 15:06:26;;;;;;;9.63;5.60;;;16.70;99.90;;;;;;5069292;28;20134;-86
2022/06/24 15:09:13;;;;;;;6.80;4.65;;;16.90;99.90;;;;;;5065417;28;20048;-86
2022/06/24 15:12:01;;;;;;;6.97;4.50;;;16.80;99.90;;;;;;5071702;28;20135;-86
2022/06/24 15:14:53;;;;;;;10.82;4.60;;;16.90;99.90;;;;;;5071298;28;20158;-86
2022/06/24 15:17:40;;;;;;;8.15;4.30;;;16.90;99.90;;;;;;5068574;28;20052;-84
2022/06/24 15:20:30;;;;;;;7.55;4.55;;;17.00;99.90;;;;;;5084018;28;20052;-85
2022/06/24 15:23:20;;;;;;;6.40;3.88;;;17.20;99.90;;;;;;5067759;28;20040;-87
2022/06/24 15:26:10;;;;;;;7.63;3.20;;;17.10;99.90;;;;;;5072344;28;20040;-85
2022/06/24 15:29:01;;;;;;;6.50;3.08;;;17.10;99.90;;;;;;5067409;28;20595;-85
2022/06/24 15:31:48;;;;;;;5.63;3.35;;;16.90;99.90;;;;;;5054617;28;20094;-84
2022/06/24 15:34:38;;;;;;;5.22;3.97;;;17.00;99.90;;;;;;5072245;28;20460;-87
2022/06/24 15:37:26;;;;;;;11.77;5.60;;;17.00;99.90;;;;;;5055783;28;20105;-87
2022/06/24 15:40:16;;;;;;;5.88;3.92;;;17.00;99.90;;;;;;5066245;28;20040;-87
2022/06/24 15:43:03;;;;;;;5.95;4.38;;;17.10;99.90;;;;;;5060640;28;20076;-86
2022/06/24 15:45:52;;;;;;;6.28;4.43;;;17.20;99.90;;;;;;5060319;28;20064;-86
2022/06/24 15:48:42;;;;;;;5.50;3.97;;;17.20;99.90;;;;;;5051219;28;20151;-87
2022/06/24 15:51:29;;;;;;;5.45;3.75;;;17.20;99.90;;;;;;5067568;28;20060;-84
2022/06/24 15:54:17;;;;;;;4.97;3.45;;;17.30;99.90;;;;;;5076633;28;20139;-86
2022/06/24 16:05:38;;;;;;;2.60;2.20;;;17.30;99.90;;;;;;5071598;28;20058;-84
2022/06/24 16:09:17;;;;;;;4.72;2.33;;;17.10;99.90;;;;;;5020416;28;20429;-85
2022/06/24 16:17:15;;;;;;;7.45;3.78;;;17.00;99.90;;;;;;5006665;28;20344;-85
2022/06/24 16:24:19;;;;;;;5.13;2.85;;;17.10;99.90;;;;;;4991148;28;20050;-89
2022/06/24 16:30:18;;;;;;;5.60;2.22;;;17.00;99.90;;;;;;5010013;28;20060;-87
2022/06/24 16:33:06;;;;;;;6.65;2.40;;;16.90;99.90;;;;;;5007697;28;20045;-87
2022/06/24 16:35:54;;;;;;;5.53;3.00;;;16.80;99.90;;;;;;4997207;28;20426;-90
2022/06/24 16:38:48;;;;;;;4.57;2.90;;;16.70;99.90;;;;;;5008580;28;20135;-88
2022/06/24 16:41:42;;;;;;;5.25;2.60;;;16.70;99.90;;;;;;5012340;28;20069;-84
2022/06/24 16:44:29;;;;;;;5.25;3.35;;;16.60;99.90;;;;;;5011631;28;20323;-89
2022/06/24 16:47:17;;;;;;;5.20;3.75;;;16.50;99.90;;;;;;4996198;28;20367;-90
2022/06/24 16:50:04;;;;;;;5.68;3.03;;;16.50;99.90;;;;;;5043256;28;20044;-89
2022/06/24 16:52:52;;;;;;;7.38;3.33;;;16.40;99.90;;;;;;5054341;28;20047;-88
2022/06/24 16:55:42;;;;;;;4.57;2.92;;;16.40;99.90;;;;;;5072979;28;20040;-88
2022/06/24 16:58:30;;;;;;;4.20;3.30;;;16.30;99.90;;;;;;5063866;28;20590;-88
2022/06/24 17:01:18;;;;;;;5.22;3.35;;;16.30;99.90;;;;;;5072233;28;20036;-85
2022/06/24 17:04:05;;;;;;;4.15;2.63;;;16.20;99.90;;;;;;5061622;28;20126;-85
2022/06/24 17:06:56;;;;;;;2.67;1.80;;;16.20;99.90;;;;;;5072329;28;20131;-86
2022/06/24 17:09:45;;;;;;;2.38;2.03;;;16.00;99.90;;;;;;5074760;28;20051;-86
2022/06/24 17:12:35;;;;;;;7.47;2.60;;;16.00;99.90;;;;;;5068652;28;20127;-84
2022/06/24 17:15:24;;;;;;;3.08;2.40;;;16.00;99.90;;;;;;5053206;28;20056;-85
2022/06/24 17:18:13;;;;;;;2.17;1.98;;;16.00;99.90;;;;;;5072238;28;20040;-85
2022/06/24 17:21:01;;;;;;;4.53;2.00;;;16.00;99.90;;;;;;5059393;28;20044;-87
2022/06/24 17:23:50;;;;;;;3.17;2.00;;;15.90;99.90;;;;;;5066124;28;20507;-83
2022/06/24 17:26:38;;;;;;;3.65;2.67;;;15.90;99.90;;;;;;5074910;28;20060;-85
2022/06/24 17:29:25;;;;;;;3.88;2.95;;;15.80;99.90;;;;;;5061998;28;20040;-85
2022/06/24 17:32:12;;;;;;;4.03;2.42;;;15.90;99.90;;;;;;5056414;28;20438;-88
2022/06/24 17:35:01;;;;;;;3.78;2.80;;;15.80;99.90;;;;;;5065037;28;20044;-86
2022/06/24 17:37:51;;;;;;;3.97;2.45;;;15.80;99.90;;;;;;5061618;28;20032;-88
2022/06/24 17:40:39;;;;;;;4.35;2.90;;;15.80;99.90;;;;;;5074820;28;20048;-85
2022/06/24 17:43:29;;;;;;;7.22;3.05;;;15.90;99.90;;;;;;5062911;28;20056;-85
2022/06/24 17:46:17;;;;;;;5.72;3.35;;;15.80;99.90;;;;;;5076460;28;20055;-87
2022/06/24 17:49:05;;;;;;;4.18;2.60;;;15.80;99.90;;;;;;5061123;28;20546;-88
2022/06/24 17:51:54;;;;;;;5.00;3.38;;;15.80;99.90;;;;;;5072307;28;20037;-88
2022/06/24 17:54:42;;;;;;;3.38;2.90;;;15.80;99.90;;;;;;5072492;28;20044;-88
2022/06/24 17:57:29;;;;;;;7.72;2.28;;;15.70;99.90;;;;;;5097950;28;20109;-87
2022/06/24 18:00:17;;;;;;;2.10;1.88;;;15.70;99.90;;;;;;5093370;28;20059;-87
2022/06/24 18:03:05;;;;;;;4.50;2.00;;;15.60;99.90;;;;;;5088207;28;20041;-85
2022/06/24 18:05:55;;;;;;;2.08;1.88;;;15.50;99.90;;;;;;5078242;28;20075;-83
2022/06/24 18:08:42;;;;;;;2.72;2.00;;;15.50;99.90;;;;;;5091975;28;20029;-82
2022/06/24 18:11:29;;;;;;;1.98;1.83;;;15.40;99.90;;;;;;5088438;28;20480;-87
2022/06/24 18:14:19;;;;;;;4.15;2.20;;;15.30;99.90;;;;;;5095941;28;20048;-84
2022/06/24 18:17:06;;;;;;;4.25;2.15;;;15.30;99.90;;;;;;5080953;28;20043;-86
2022/06/24 18:19:58;;;;;;;3.00;2.00;;;15.20;99.90;;;;;;5089427;28;20040;-85
2022/06/24 18:22:45;;;;;;;2.50;2.22;;;15.20;99.90;;;;;;5072888;28;20037;-85
2022/06/24 18:25:33;;;;;;;3.78;1.98;;;15.10;99.90;;;;;;5068174;28;20044;-85
2022/06/24 18:28:20;;;;;;;3.33;2.05;;;15.10;99.90;;;;;;5078492;28;20086;-87
2022/06/24 18:31:10;;;;;;;3.65;2.60;;;15.10;99.90;;;;;;5072776;28;20037;-86
2022/06/24 18:33:57;;;;;;;6.07;2.78;;;15.10;99.90;;;;;;5059838;28;20037;-86
2022/06/24 18:36:46;;;;;;;3.45;2.50;;;15.10;99.90;;;;;;5077431;28;20412;-86
2022/06/24 18:39:33;;;;;;;3.17;2.90;;;15.10;99.90;;;;;;5061723;28;20044;-84
2022/06/24 18:42:20;;;;;;;4.55;3.17;;;15.10;99.90;;;;;;5055866;28;20054;-86
2022/06/24 18:45:13;;;;;;;5.45;3.33;;;15.10;99.90;;;;;;5060888;28;20032;-84
2022/06/24 18:48:03;;;;;;;7.90;3.00;;;15.10;99.90;;;;;;5066911;28;20048;-88
2022/06/24 18:50:52;;;;;;;4.03;2.85;;;15.10;99.90;;;;;;5080067;28;20044;-85
2022/06/24 18:53:40;;;;;;;5.38;3.05;;;15.10;99.90;;;;;;5075596;28;20066;-86
2022/06/24 18:56:27;;;;;;;6.07;3.13;;;15.10;99.90;;;;;;5045892;28;20045;-87
2022/06/24 18:59:17;;;;;;;5.65;3.30;;;15.10;99.90;;;;;;5065129;28;20043;-86
2022/06/24 19:02:05;;;;;;;3.92;3.53;;;15.00;99.90;;;;;;5078091;28;20049;-86
2022/06/24 19:04:52;;;;;;;3.70;3.40;;;15.00;99.90;;;;;;5074698;28;20049;-87
2022/06/24 19:07:42;;;;;;;7.25;3.95;;;15.00;99.90;;;;;;5080796;28;20079;-90
2022/06/24 19:10:35;;;;;;;8.38;4.03;;;15.00;99.90;;;;;;5078992;28;20044;-86
2022/06/24 19:13:24;;;;;;;4.35;3.95;;;15.00;99.90;;;;;;5069597;28;20062;-86
2022/06/24 19:16:12;;;;;;;11.75;6.53;;;15.00;99.90;;;;;;5071090;28;20040;-84
2022/06/24 19:19:05;;;;;;;4.78;4.38;;;15.00;99.90;;;;;;5064393;28;20422;-85
2022/06/24 19:21:53;;;;;;;5.10;3.65;;;15.00;99.90;;;;;;5058829;28;20047;-86
2022/06/24 19:24:40;;;;;;;9.63;4.28;;;14.90;99.90;;;;;;5074371;28;20055;-85
2022/06/24 19:27:27;;;;;;;5.78;4.72;;;15.00;99.90;;;;;;5071941;28;20174;-88
2022/06/24 19:30:38;;;;;;;9.98;5.13;;;14.90;99.90;;;;;;5051792;28;20040;-89
2022/06/24 19:33:28;;;;;;;6.07;4.50;;;14.90;99.90;;;;;;5080752;28;20047;-88
2022/06/24 19:36:18;;;;;;;8.38;5.00;;;14.90;99.90;;;;;;5065838;28;20133;-88
2022/06/24 19:39:05;;;;;;;5.50;4.30;;;14.80;99.90;;;;;;5079105;28;20133;-88
2022/06/24 19:41:55;;;;;;;5.07;4.18;;;14.80;99.90;;;;;;5069525;28;20166;-87
2022/06/24 19:44:46;;;;;;;4.43;4.03;;;14.80;99.90;;;;;;5061514;28;20052;-85
2022/06/24 19:47:42;;;;;;;6.55;4.15;;;14.80;99.90;;;;;;5071372;28;20148;-85
2022/06/24 19:50:29;;;;;;;5.10;4.43;;;14.80;99.90;;;;;;5060956;28;20040;-87
2022/06/24 19:53:17;;;;;;;5.68;4.05;;;14.70;99.90;;;;;;5063527;28;20044;-88
2022/06/24 19:56:04;;;;;;;4.47;4.07;;;14.70;99.90;;;;;;5067788;28;20106;-87
2022/06/24 19:58:52;;;;;;;5.18;4.65;;;14.70;99.90;;;;;;5071760;28;20037;-85
2022/06/24 20:07:54;;;;;;;9.52;5.18;;;14.70;99.90;;;;;;5069733;28;20048;-85
2022/06/24 20:10:42;;;;;;;5.93;4.40;;;14.70;99.90;;;;;;5065201;28;20048;-87
2022/06/24 20:13:30;;;;;;;8.95;4.63;;;14.70;99.90;;;;;;5055212;28;20465;-87
2022/06/24 20:16:25;;;;;;;4.40;4.00;;;14.70;99.90;;;;;;5057510;28;20144;-86
2022/06/24 20:19:14;;;;;;;5.85;4.75;;;14.60;99.90;;;;;;5060461;28;20040;-85
2022/06/24 20:22:04;;;;;;;5.47;4.97;;;14.70;99.90;;;;;;5056656;28;20041;-87
2022/06/24 20:24:53;;;;;;;5.60;5.10;;;14.70;99.90;;;;;;5070079;28;20051;-86
2022/06/24 20:27:40;;;;;;;7.50;5.22;;;14.70;99.90;;;;;;5058820;28;20335;-86
2022/06/24 20:30:28;;;;;;;8.35;5.35;;;14.70;99.90;;;;;;5069728;28;20053;-86
2022/06/24 20:33:18;;;;;;;8.43;5.47;;;14.70;99.90;;;;;;5082094;28;20052;-85